Terminal Aerodrome Forecast
Issued by NWS

Home | Current Version | Previous Version | Text Only | Print | Product List | Glossary On
Versions: 1 2 3 4 5 6 7 8 9 10 11 12 13
000
FTUS46 KSTO 291732
TAFSMF
TAF
KSMF 291732Z 2918/3018 20006KT P6SM SCT250
     FM300300 18010KT P6SM BKN150
     FM300600 18011KT P6SM VCSH BKN050=

USA.gov is the U.S. government's official web portal to all federal, state and local government web resources and services.